Time;durP1;ratioP1;P1;durP2;ratioP2;P2;SDS_P1;SDS_P2;PMS_P1;PMS_P2;Temp;Humidity;BMP_temperature;BMP_pressure;BME280_temperature;BME280_humidity;BME280_pressure;Samples;Min_cycle;Max_cycle;Signal;HPM_P1;HPM_P2
2023/12/29 00:01:04;;;;;;;5.07;2.83;;;28.30;99.90;;;;;;5011700;28;20217;-71
2023/12/29 00:03:32;;;;;;;4.33;2.23;;;28.30;99.90;;;;;;5011566;28;20711;-71
2023/12/29 00:06:02;;;;;;;6.17;2.53;;;28.10;99.90;;;;;;5010927;28;20700;-70
2023/12/29 00:08:29;;;;;;;6.10;2.63;;;28.10;99.90;;;;;;5011424;28;20598;-73
2023/12/29 00:10:57;;;;;;;9.73;3.47;;;29.00;99.90;;;;;;5011401;28;20271;-74
2023/12/29 00:16:46;;;;;;;6.00;2.97;;;29.10;99.90;;;;;;5011004;28;20185;-75
2023/12/29 00:19:14;;;;;;;7.20;4.00;;;28.60;99.90;;;;;;5011086;28;20190;-75
2023/12/29 00:21:41;;;;;;;7.17;3.67;;;28.60;99.90;;;;;;5010790;28;20549;-73
2023/12/29 00:24:09;;;;;;;5.27;3.53;;;28.30;99.90;;;;;;5010852;28;20213;-76
2023/12/29 00:26:36;;;;;;;6.53;4.23;;;28.50;99.90;;;;;;5011142;28;20216;-75
2023/12/29 00:29:05;;;;;;;6.73;4.20;;;28.70;99.90;;;;;;5010653;28;20744;-75
2023/12/29 00:31:33;;;;;;;4.37;3.63;;;28.90;99.90;;;;;;5011093;28;20364;-74
2023/12/29 00:34:00;;;;;;;5.37;3.97;;;28.70;99.90;;;;;;5011011;28;20178;-75
2023/12/29 00:36:27;;;;;;;8.60;4.50;;;28.60;99.90;;;;;;5010525;28;20579;-73
2023/12/29 00:38:55;;;;;;;5.43;4.37;;;28.50;99.90;;;;;;5011056;28;20187;-72
2023/12/29 00:41:22;;;;;;;11.90;5.07;;;28.30;99.90;;;;;;5010784;28;20194;-71
2023/12/29 00:43:49;;;;;;;4.47;3.00;;;28.00;99.90;;;;;;5010702;28;20216;-72
2023/12/29 00:46:16;;;;;;;7.40;1.80;;;27.80;99.90;;;;;;5011266;28;20731;-71
2023/12/29 00:48:44;;;;;;;10.43;2.07;;;27.70;99.90;;;;;;5011130;28;20197;-70
2023/12/29 00:51:11;;;;;;;6.93;1.83;;;27.40;99.90;;;;;;5010110;28;20298;-71
2023/12/29 00:53:38;;;;;;;4.17;2.07;;;27.10;99.90;;;;;;5011056;28;20190;-70
2023/12/29 00:56:11;;;;;;;7.67;2.10;;;26.80;99.90;;;;;;5011127;28;20230;-72
2023/12/29 00:58:39;;;;;;;4.30;2.37;;;26.70;99.90;;;;;;5014057;28;20681;-71
2023/12/29 01:01:11;;;;;;;8.73;2.40;;;26.60;99.90;;;;;;5017348;28;20224;-70
2023/12/29 01:03:38;;;;;;;9.80;2.07;;;26.70;99.90;;;;;;5016922;28;20546;-69
2023/12/29 01:06:06;;;;;;;6.80;2.17;;;26.90;99.90;;;;;;5016764;28;20192;-70
2023/12/29 01:08:33;;;;;;;5.27;2.00;;;27.00;99.90;;;;;;5016699;28;20181;-70
2023/12/29 01:11:00;;;;;;;4.37;2.20;;;27.20;99.90;;;;;;5017309;28;20217;-71
2023/12/29 01:13:28;;;;;;;11.87;2.10;;;27.30;99.90;;;;;;5016585;28;20197;-71
2023/12/29 01:15:55;;;;;;;5.57;2.00;;;27.70;99.90;;;;;;5017183;28;20264;-71
2023/12/29 01:18:22;;;;;;;6.57;2.57;;;27.90;99.90;;;;;;5017189;28;20559;-71
2023/12/29 01:20:50;;;;;;;4.47;2.23;;;28.20;99.90;;;;;;5016745;28;20188;-71
2023/12/29 01:23:18;;;;;;;6.20;1.97;;;28.60;99.90;;;;;;4999182;28;20186;-71
2023/12/29 01:25:45;;;;;;;5.53;2.63;;;29.10;99.90;;;;;;5017290;28;20185;-70
2023/12/29 01:28:12;;;;;;;9.87;2.43;;;29.70;99.90;;;;;;5016338;28;20200;-70
2023/12/29 01:30:40;;;;;;;5.87;2.90;;;30.20;99.90;;;;;;5017396;28;20213;-71
2023/12/29 01:33:07;;;;;;;11.60;2.58;;;30.30;99.90;;;;;;5023248;28;20252;-72
2023/12/29 01:35:35;;;;;;;9.45;2.83;;;30.50;99.90;;;;;;5021418;28;20182;-71
2023/12/29 01:38:04;;;;;;;8.98;3.03;;;31.10;99.90;;;;;;5018741;28;20245;-71
2023/12/29 01:40:31;;;;;;;6.75;2.60;;;31.40;99.90;;;;;;4999599;28;20679;-69
2023/12/29 01:42:58;;;;;;;7.75;2.95;;;31.20;99.90;;;;;;4997197;28;20189;-74
2023/12/29 01:45:26;;;;;;;5.75;2.75;;;30.80;99.90;;;;;;5016782;28;20277;-72
2023/12/29 01:47:54;;;;;;;5.30;2.75;;;30.60;99.90;;;;;;5016667;28;20178;-70
2023/12/29 01:50:23;;;;;;;5.28;2.72;;;30.50;99.90;;;;;;5017404;28;20394;-74
2023/12/29 01:52:52;;;;;;;4.25;2.60;;;29.90;99.90;;;;;;5016869;28;20577;-72
2023/12/29 01:55:22;;;;;;;6.55;2.80;;;29.70;99.90;;;;;;5016640;28;20512;-72
2023/12/29 01:57:50;;;;;;;5.57;2.97;;;29.30;99.90;;;;;;5017100;28;20177;-70
2023/12/29 02:00:18;;;;;;;10.65;2.80;;;29.30;99.90;;;;;;5016674;28;20184;-70
2023/12/29 02:02:47;;;;;;;7.28;2.70;;;29.40;99.90;;;;;;5015840;28;20965;-71
2023/12/29 02:05:18;;;;;;;9.17;3.37;;;29.30;99.90;;;;;;5004289;28;20190;-72
2023/12/29 02:07:47;;;;;;;5.90;2.80;;;29.00;99.90;;;;;;5016281;28;20181;-72
2023/12/29 02:10:15;;;;;;;6.47;3.30;;;28.80;99.90;;;;;;5014509;28;20297;-72
2023/12/29 02:12:43;;;;;;;9.10;3.23;;;28.70;99.90;;;;;;5013611;28;20184;-71
2023/12/29 02:15:10;;;;;;;5.57;2.57;;;28.60;99.90;;;;;;5013891;28;20284;-72
2023/12/29 02:17:46;;;;;;;8.03;2.33;;;28.50;99.90;;;;;;5013471;28;20201;-70
2023/12/29 02:20:14;;;;;;;11.27;2.30;;;28.40;99.90;;;;;;5013636;28;20264;-71
2023/12/29 02:22:42;;;;;;;11.27;2.57;;;28.20;99.90;;;;;;4995915;28;20281;-71
2023/12/29 02:25:10;;;;;;;8.47;2.10;;;28.10;99.90;;;;;;5013273;28;20190;-71
2023/12/29 02:27:54;;;;;;;5.97;2.83;;;28.10;99.90;;;;;;5013664;28;20285;-71
2023/12/29 02:31:01;;;;;;;9.20;3.20;;;28.10;99.90;;;;;;4994003;28;20210;-71
2023/12/29 02:33:33;;;;;;;10.60;3.40;;;28.10;99.90;;;;;;4984671;28;20537;-70
2023/12/29 02:36:02;;;;;;;9.73;2.87;;;27.80;99.90;;;;;;5013536;28;20174;-72
2023/12/29 02:38:30;;;;;;;11.03;2.80;;;27.80;99.90;;;;;;5013607;28;20170;-71
2023/12/29 02:40:58;;;;;;;7.10;2.50;;;27.70;99.90;;;;;;5012587;28;20197;-69
2023/12/29 02:43:26;;;;;;;8.00;2.43;;;27.80;99.90;;;;;;5013393;28;20178;-71
2023/12/29 02:45:53;;;;;;;11.57;3.10;;;27.80;99.90;;;;;;5013417;28;20178;-72
2023/12/29 02:48:20;;;;;;;8.73;3.17;;;27.80;99.90;;;;;;5013141;28;20170;-71
2023/12/29 02:50:48;;;;;;;11.43;3.13;;;27.90;99.90;;;;;;5013321;28;20221;-72
2023/12/29 02:53:15;;;;;;;11.80;2.60;;;27.80;99.90;;;;;;5012628;28;20225;-70
2023/12/29 02:55:42;;;;;;;11.07;2.83;;;27.70;99.90;;;;;;5012661;28;20647;-71
2023/12/29 02:58:10;;;;;;;8.67;2.27;;;27.50;99.90;;;;;;5012865;28;20178;-71
2023/12/29 03:00:37;;;;;;;8.57;2.90;;;27.50;99.90;;;;;;5012952;28;20181;-71
2023/12/29 03:03:05;;;;;;;16.40;3.50;;;27.40;99.90;;;;;;5012678;28;20261;-69
2023/12/29 03:05:32;;;;;;;9.63;2.60;;;27.40;99.90;;;;;;5012669;28;20190;-69
2023/12/29 03:07:59;;;;;;;12.63;2.77;;;27.30;99.90;;;;;;4995312;28;20178;-70
2023/12/29 03:10:27;;;;;;;11.63;2.93;;;27.40;99.90;;;;;;5012341;28;20360;-70
2023/12/29 03:12:54;;;;;;;11.77;2.77;;;27.60;99.90;;;;;;4995191;28;20201;-70
2023/12/29 03:15:21;;;;;;;9.53;3.20;;;27.70;99.90;;;;;;5012320;28;20185;-70
2023/12/29 03:17:49;;;;;;;13.70;2.43;;;27.90;99.90;;;;;;5012042;28;20654;-70
2023/12/29 03:20:25;;;;;;;15.67;3.10;;;28.00;99.90;;;;;;5012169;28;20651;-70
2023/12/29 03:22:52;;;;;;;58.60;7.47;;;27.90;99.90;;;;;;5012207;28;20197;-72
2023/12/29 03:25:20;;;;;;;47.77;5.47;;;27.80;99.90;;;;;;5012105;28;20587;-70
2023/12/29 03:27:47;;;;;;;10.60;2.67;;;27.90;99.90;;;;;;5012474;28;20690;-70
2023/12/29 03:30:15;;;;;;;11.23;2.73;;;28.20;99.90;;;;;;5013505;28;20271;-70
2023/12/29 03:32:42;;;;;;;9.80;2.13;;;28.30;99.90;;;;;;5013131;28;20557;-70
2023/12/29 03:35:09;;;;;;;11.57;2.63;;;28.20;99.90;;;;;;5013059;28;20273;-69
2023/12/29 03:37:38;;;;;;;10.00;2.60;;;28.30;99.90;;;;;;5013230;28;20265;-70
2023/12/29 03:40:05;;;;;;;12.97;3.00;;;28.20;99.90;;;;;;5013260;28;20182;-69
2023/12/29 03:42:33;;;;;;;12.47;2.60;;;28.00;99.90;;;;;;5013137;28;20189;-69
2023/12/29 03:45:00;;;;;;;11.47;3.00;;;27.80;99.90;;;;;;5013686;28;20289;-69
2023/12/29 03:47:27;;;;;;;12.60;2.97;;;27.80;99.90;;;;;;5013863;28;20174;-69
2023/12/29 03:49:55;;;;;;;14.23;3.07;;;27.50;99.90;;;;;;5014101;28;20256;-69
2023/12/29 03:52:22;;;;;;;11.83;2.60;;;27.60;99.90;;;;;;5013723;28;20229;-70
2023/12/29 03:54:49;;;;;;;18.37;4.37;;;27.40;99.90;;;;;;5013859;28;20269;-69
2023/12/29 03:57:17;;;;;;;14.13;3.37;;;27.40;99.90;;;;;;5013118;28;20193;-69
2023/12/29 03:59:44;;;;;;;15.20;3.43;;;27.40;99.90;;;;;;5013739;28;20178;-69
2023/12/29 04:02:11;;;;;;;14.50;2.87;;;27.40;99.90;;;;;;5013933;28;20182;-69
2023/12/29 04:04:39;;;;;;;9.63;2.50;;;27.30;99.90;;;;;;4995798;28;20193;-70
2023/12/29 04:07:06;;;;;;;17.07;3.93;;;27.30;99.90;;;;;;4995862;28;20174;-71
2023/12/29 04:09:33;;;;;;;13.27;2.97;;;27.00;99.90;;;;;;5011206;28;20186;-70
2023/12/29 04:12:01;;;;;;;15.60;3.40;;;26.90;99.90;;;;;;5013684;28;20178;-70
2023/12/29 04:14:28;;;;;;;12.50;2.77;;;26.90;99.90;;;;;;5013718;28;20237;-70
2023/12/29 04:16:55;;;;;;;13.30;2.80;;;26.80;99.90;;;;;;5012687;28;20245;-70
2023/12/29 04:19:23;;;;;;;11.83;2.70;;;26.70;99.90;;;;;;4993950;28;20178;-71
2023/12/29 04:21:50;;;;;;;14.23;3.23;;;26.60;99.90;;;;;;4993703;28;20182;-70
2023/12/29 04:24:17;;;;;;;16.03;3.20;;;26.50;99.90;;;;;;4993671;28;20179;-70
2023/12/29 04:26:44;;;;;;;10.20;2.93;;;26.20;99.90;;;;;;4993813;28;20171;-70
2023/12/29 04:29:12;;;;;;;10.97;3.27;;;26.30;99.90;;;;;;4993671;28;20178;-70
2023/12/29 04:31:39;;;;;;;13.53;2.70;;;26.40;99.90;;;;;;4993767;28;20211;-70
2023/12/29 04:34:06;;;;;;;23.33;3.77;;;26.40;99.90;;;;;;4999747;28;20176;-70
2023/12/29 04:36:33;;;;;;;12.83;4.30;;;26.30;99.90;;;;;;5013041;28;20185;-70
2023/12/29 04:39:01;;;;;;;13.10;3.40;;;26.20;99.90;;;;;;5013034;28;20185;-70
2023/12/29 04:41:29;;;;;;;17.87;3.07;;;26.20;99.90;;;;;;5013351;28;20300;-71
2023/12/29 04:43:56;;;;;;;14.57;3.00;;;26.30;99.90;;;;;;4995470;28;20293;-70
2023/12/29 04:46:23;;;;;;;13.33;3.20;;;26.40;99.90;;;;;;5013199;28;20174;-71
2023/12/29 04:48:50;;;;;;;19.57;3.57;;;26.50;99.90;;;;;;5012851;28;20538;-72
2023/12/29 04:51:18;;;;;;;17.63;3.70;;;27.00;99.90;;;;;;4990673;28;20209;-70
2023/12/29 04:53:45;;;;;;;10.60;2.77;;;27.40;99.90;;;;;;5011168;28;20194;-72
2023/12/29 04:56:13;;;;;;;14.90;2.90;;;27.50;99.90;;;;;;5011519;28;20193;-71
2023/12/29 04:58:40;;;;;;;16.70;3.13;;;27.60;99.90;;;;;;5010997;28;20285;-70
2023/12/29 05:01:08;;;;;;;14.10;3.30;;;27.70;99.90;;;;;;5011127;28;20177;-71
2023/12/29 05:03:35;;;;;;;12.80;3.20;;;27.70;99.90;;;;;;5011070;28;20233;-71
2023/12/29 05:06:03;;;;;;;11.50;2.80;;;27.80;99.90;;;;;;5010948;28;20201;-70
2023/12/29 05:08:30;;;;;;;11.17;3.13;;;27.60;99.90;;;;;;5011407;28;20182;-70
2023/12/29 05:10:57;;;;;;;13.57;2.90;;;27.70;99.90;;;;;;5011389;28;20213;-70
2023/12/29 05:13:24;;;;;;;13.80;2.97;;;27.70;99.90;;;;;;5010978;28;20208;-70
2023/12/29 05:15:52;;;;;;;18.70;3.63;;;27.60;99.90;;;;;;5010933;28;20236;-71
2023/12/29 05:18:19;;;;;;;12.77;3.40;;;27.70;99.90;;;;;;5011285;28;20261;-70
2023/12/29 05:20:48;;;;;;;18.93;3.50;;;27.60;99.90;;;;;;5010833;28;20182;-70
2023/12/29 05:23:15;;;;;;;10.07;3.00;;;27.60;99.90;;;;;;5011423;28;20178;-70
2023/12/29 05:25:42;;;;;;;14.93;3.20;;;27.70;99.90;;;;;;5011195;28;20265;-71
2023/12/29 05:28:10;;;;;;;9.47;2.63;;;27.60;99.90;;;;;;5010234;28;20647;-70
2023/12/29 05:30:37;;;;;;;14.80;2.73;;;27.50;99.90;;;;;;5011232;28;20210;-70
2023/12/29 05:33:04;;;;;;;12.47;3.00;;;27.30;99.90;;;;;;5011473;28;20177;-70
2023/12/29 05:35:32;;;;;;;14.47;3.57;;;27.10;99.90;;;;;;5010827;28;20658;-72
2023/12/29 05:41:21;;;;;;;13.97;3.17;;;26.70;99.90;;;;;;5010123;28;20237;-71
2023/12/29 05:43:48;;;;;;;17.63;3.10;;;26.60;99.90;;;;;;5011003;28;20240;-71
2023/12/29 05:46:15;;;;;;;15.53;3.20;;;26.60;99.90;;;;;;5014917;28;20741;-73
2023/12/29 05:48:42;;;;;;;12.77;3.20;;;26.70;99.90;;;;;;5014335;28;20185;-71
2023/12/29 05:51:11;;;;;;;12.57;2.90;;;26.80;99.90;;;;;;5014149;28;20292;-70
2023/12/29 05:53:40;;;;;;;14.40;3.17;;;26.90;99.90;;;;;;5014429;28;20194;-71
2023/12/29 05:56:07;;;;;;;10.83;3.57;;;26.80;99.90;;;;;;5014488;28;20190;-71
2023/12/29 05:58:35;;;;;;;14.70;3.23;;;26.60;99.90;;;;;;4997112;28;20607;-70
2023/12/29 06:01:02;;;;;;;15.53;3.50;;;26.70;99.90;;;;;;5014289;28;20184;-70
2023/12/29 06:03:30;;;;;;;18.03;3.40;;;26.70;99.90;;;;;;5013993;28;20210;-70
2023/12/29 06:05:57;;;;;;;13.63;3.17;;;26.80;99.90;;;;;;5014532;28;20228;-71
2023/12/29 06:08:24;;;;;;;16.03;3.33;;;26.70;99.90;;;;;;5014542;28;20182;-70
2023/12/29 06:10:52;;;;;;;13.67;2.90;;;26.70;99.90;;;;;;5014298;28;20217;-70
2023/12/29 06:13:19;;;;;;;15.47;2.97;;;26.60;99.90;;;;;;5013771;28;20182;-71
2023/12/29 06:15:47;;;;;;;24.10;7.10;;;26.60;99.90;;;;;;5013687;28;20279;-70
2023/12/29 06:18:14;;;;;;;22.33;3.80;;;26.40;99.90;;;;;;4996554;28;20174;-70
2023/12/29 06:20:41;;;;;;;19.37;3.90;;;26.20;99.90;;;;;;5013970;28;20185;-70
2023/12/29 06:23:09;;;;;;;8.40;2.87;;;26.10;99.90;;;;;;5014390;28;20544;-71
2023/12/29 06:25:36;;;;;;;15.70;3.17;;;26.00;99.90;;;;;;5014073;28;20201;-70
2023/12/29 06:28:06;;;;;;;15.37;3.20;;;26.00;99.90;;;;;;5014251;28;20188;-69
2023/12/29 06:30:33;;;;;;;18.23;3.93;;;26.00;99.90;;;;;;5015141;28;20244;-70
2023/12/29 06:33:00;;;;;;;16.43;3.87;;;26.00;99.90;;;;;;5015780;28;20185;-70
2023/12/29 06:35:28;;;;;;;21.93;5.93;;;25.90;99.90;;;;;;5015365;28;20186;-70
2023/12/29 06:37:55;;;;;;;10.43;3.40;;;25.90;99.90;;;;;;5015573;28;20182;-70
2023/12/29 06:40:22;;;;;;;19.60;4.40;;;25.80;99.90;;;;;;5015514;28;20182;-70
2023/12/29 06:42:50;;;;;;;14.63;3.47;;;25.80;99.90;;;;;;5015267;28;20185;-70
2023/12/29 06:45:18;;;;;;;15.07;4.67;;;25.70;99.90;;;;;;5015119;28;20553;-71
2023/12/29 06:47:46;;;;;;;15.63;4.10;;;25.70;99.90;;;;;;5015251;28;20261;-70
2023/12/29 06:50:13;;;;;;;23.67;4.87;;;25.80;99.90;;;;;;5015262;28;20225;-69
2023/12/29 06:52:41;;;;;;;12.57;3.20;;;26.00;99.90;;;;;;5014338;28;20237;-71
2023/12/29 06:55:08;;;;;;;13.13;3.90;;;26.00;99.90;;;;;;5014621;28;20186;-70
2023/12/29 06:57:36;;;;;;;18.43;3.60;;;26.00;99.90;;;;;;5014533;28;20188;-69
2023/12/29 07:00:04;;;;;;;14.47;3.00;;;26.00;99.90;;;;;;4997346;28;20277;-69
2023/12/29 07:02:32;;;;;;;16.73;3.53;;;25.80;99.90;;;;;;5014934;28;20261;-69
2023/12/29 07:04:59;;;;;;;15.87;4.20;;;25.90;99.90;;;;;;5014740;28;20186;-70
2023/12/29 07:07:26;;;;;;;14.73;2.70;;;25.90;99.90;;;;;;5014443;28;20582;-71
2023/12/29 07:09:53;;;;;;;10.83;3.37;;;25.70;99.90;;;;;;5014715;28;20179;-69
2023/12/29 07:12:21;;;;;;;17.17;3.70;;;25.70;99.90;;;;;;5014711;28;20196;-69
2023/12/29 07:14:48;;;;;;;19.63;4.00;;;25.70;99.90;;;;;;5014589;28;20182;-69
2023/12/29 07:17:16;;;;;;;14.30;3.83;;;25.80;99.90;;;;;;4998027;28;20190;-69
2023/12/29 07:19:43;;;;;;;18.20;5.50;;;25.70;99.90;;;;;;5014949;28;20185;-69
2023/12/29 07:22:10;;;;;;;10.40;4.50;;;25.70;99.90;;;;;;5014596;28;20178;-69
2023/12/29 07:24:38;;;;;;;14.20;4.67;;;25.70;99.90;;;;;;5014085;28;20213;-71
2023/12/29 07:27:06;;;;;;;20.73;4.53;;;25.70;99.90;;;;;;5014434;28;20627;-71
2023/12/29 07:29:33;;;;;;;12.57;3.80;;;25.80;99.90;;;;;;4992605;28;20186;-70
2023/12/29 07:32:01;;;;;;;17.47;3.93;;;25.60;99.90;;;;;;5012648;28;20749;-71
2023/12/29 07:34:31;;;;;;;22.63;4.20;;;25.40;99.90;;;;;;5012771;28;20188;-70
2023/12/29 07:36:58;;;;;;;13.73;4.20;;;25.20;99.90;;;;;;4995246;28;20710;-71
2023/12/29 07:39:26;;;;;;;18.13;3.13;;;25.20;99.90;;;;;;5012665;28;20599;-70
2023/12/29 07:41:53;;;;;;;12.73;2.90;;;25.30;99.90;;;;;;5012473;28;20596;-73
2023/12/29 07:44:20;;;;;;;12.13;3.20;;;25.20;99.90;;;;;;5012420;28;20174;-70
2023/12/29 07:46:48;;;;;;;15.83;3.20;;;25.20;99.90;;;;;;5012805;28;20185;-70
2023/12/29 07:49:15;;;;;;;13.07;3.23;;;25.20;99.90;;;;;;5012718;28;20636;-70
2023/12/29 07:51:45;;;;;;;12.80;3.37;;;25.20;99.90;;;;;;5012365;28;20242;-70
2023/12/29 07:54:12;;;;;;;19.27;4.30;;;25.10;99.90;;;;;;5012140;28;20193;-69
2023/12/29 07:56:40;;;;;;;18.93;4.47;;;25.00;99.90;;;;;;5008818;28;20263;-71
2023/12/29 07:59:07;;;;;;;15.70;4.07;;;25.00;99.90;;;;;;5012337;28;20197;-71
2023/12/29 08:01:36;;;;;;;9.07;2.80;;;24.90;99.90;;;;;;5012312;28;20627;-73
2023/12/29 08:04:04;;;;;;;17.53;3.67;;;24.80;99.90;;;;;;4997814;28;20190;-70
2023/12/29 08:06:31;;;;;;;17.90;4.23;;;24.80;99.90;;;;;;5008612;28;20193;-70
2023/12/29 08:08:59;;;;;;;14.77;3.30;;;24.70;99.90;;;;;;5000592;28;20222;-72
2023/12/29 08:11:26;;;;;;;14.27;3.50;;;24.60;99.90;;;;;;5005300;28;20221;-70
2023/12/29 08:13:53;;;;;;;18.33;4.10;;;24.60;99.90;;;;;;5009853;28;20188;-70
2023/12/29 08:16:20;;;;;;;17.10;3.47;;;24.60;99.90;;;;;;5011765;28;20193;-71
2023/12/29 08:18:49;;;;;;;19.40;4.33;;;24.60;99.90;;;;;;5012009;28;20189;-70
2023/12/29 08:21:20;;;;;;;15.37;4.03;;;24.60;99.90;;;;;;5012056;28;20213;-71
2023/12/29 08:23:48;;;;;;;16.30;3.80;;;24.60;99.90;;;;;;5011821;28;20182;-70
2023/12/29 08:26:16;;;;;;;13.17;3.47;;;24.60;99.90;;;;;;5011704;28;20189;-71
2023/12/29 08:28:45;;;;;;;16.80;3.60;;;24.60;99.90;;;;;;4994190;28;20265;-70
2023/12/29 08:31:12;;;;;;;12.43;3.73;;;24.60;99.90;;;;;;5011898;28;20198;-70
2023/12/29 08:33:39;;;;;;;14.00;3.63;;;24.60;99.90;;;;;;5011744;28;20178;-71
2023/12/29 08:36:07;;;;;;;13.53;3.97;;;24.60;99.90;;;;;;5011824;28;20244;-69
2023/12/29 08:38:34;;;;;;;12.40;3.73;;;24.70;99.90;;;;;;5011241;28;20623;-70
2023/12/29 08:41:02;;;;;;;19.83;4.17;;;24.80;99.90;;;;;;5010575;28;20190;-70
2023/12/29 08:43:29;;;;;;;10.10;3.30;;;24.80;99.90;;;;;;4994014;28;20217;-70
2023/12/29 08:45:56;;;;;;;16.00;3.43;;;24.80;99.90;;;;;;5011743;28;20561;-69
2023/12/29 08:48:25;;;;;;;14.80;3.70;;;24.80;99.90;;;;;;5011512;28;20181;-70
2023/12/29 08:50:52;;;;;;;14.47;3.83;;;24.80;99.90;;;;;;5011371;28;20374;-70
2023/12/29 08:53:19;;;;;;;13.17;3.30;;;24.80;99.90;;;;;;4997068;28;20595;-71
2023/12/29 08:55:47;;;;;;;16.10;4.40;;;24.60;99.90;;;;;;5008644;28;20182;-70
2023/12/29 08:58:14;;;;;;;20.03;4.30;;;24.50;99.90;;;;;;5011324;28;20190;-70
2023/12/29 09:00:41;;;;;;;9.50;3.10;;;24.40;99.90;;;;;;5011305;28;20205;-71
2023/12/29 09:03:10;;;;;;;17.10;3.33;;;24.20;99.90;;;;;;4993858;28;20190;-71
2023/12/29 09:05:37;;;;;;;18.00;3.90;;;24.10;99.90;;;;;;5012322;28;20266;-71
2023/12/29 09:08:04;;;;;;;10.60;3.37;;;23.90;99.90;;;;;;5012616;28;20603;-70
2023/12/29 09:10:32;;;;;;;13.57;3.60;;;23.80;99.90;;;;;;5012623;28;20236;-69
2023/12/29 09:12:59;;;;;;;19.77;4.60;;;23.70;99.90;;;;;;5012861;28;20223;-70
2023/12/29 09:15:26;;;;;;;24.47;5.57;;;23.60;99.90;;;;;;5012578;28;20185;-70
2023/12/29 09:17:54;;;;;;;22.40;4.50;;;23.50;99.90;;;;;;5012910;28;20624;-71
2023/12/29 09:20:21;;;;;;;12.37;4.23;;;23.50;99.90;;;;;;5015342;28;20265;-70
2023/12/29 09:22:48;;;;;;;23.73;5.77;;;23.40;99.90;;;;;;5016656;28;20197;-70
2023/12/29 09:25:15;;;;;;;18.03;5.00;;;23.40;99.90;;;;;;5016420;28;20211;-70
2023/12/29 09:27:44;;;;;;;22.03;5.70;;;23.30;99.90;;;;;;5016707;28;20660;-71
2023/12/29 09:30:12;;;;;;;18.00;5.00;;;23.20;99.90;;;;;;5016606;28;20265;-70
2023/12/29 09:32:39;;;;;;;15.13;4.93;;;23.30;99.90;;;;;;5016789;28;20269;-70
2023/12/29 09:35:06;;;;;;;16.10;5.37;;;23.20;99.90;;;;;;5016355;28;20186;-71
2023/12/29 09:37:34;;;;;;;18.87;5.30;;;23.10;99.90;;;;;;5016694;28;20186;-71
2023/12/29 09:40:01;;;;;;;17.67;5.80;;;23.10;99.90;;;;;;5016645;28;20687;-71
2023/12/29 09:42:31;;;;;;;23.03;5.83;;;23.00;99.90;;;;;;5016702;28;20181;-71
2023/12/29 09:45:00;;;;;;;15.83;6.10;;;23.00;99.90;;;;;;5016389;28;20178;-71
2023/12/29 09:47:31;;;;;;;13.73;4.03;;;22.90;99.90;;;;;;5016109;28;20283;-70
2023/12/29 09:49:59;;;;;;;20.40;4.47;;;23.00;99.90;;;;;;5016636;28;20209;-71
2023/12/29 09:52:26;;;;;;;15.27;4.60;;;23.00;99.90;;;;;;5016134;28;20225;-71
2023/12/29 09:54:54;;;;;;;11.67;3.77;;;23.10;99.90;;;;;;5016181;28;20639;-71
2023/12/29 09:57:21;;;;;;;10.43;2.87;;;23.10;99.90;;;;;;5015905;28;20194;-70
2023/12/29 09:59:51;;;;;;;9.47;2.40;;;23.10;99.90;;;;;;5016145;28;20190;-71
2023/12/29 10:02:20;;;;;;;6.57;1.70;;;23.00;99.90;;;;;;5016346;28;20603;-71
2023/12/29 10:04:48;;;;;;;3.40;1.13;;;23.00;99.90;;;;;;4993770;28;20233;-73
2023/12/29 10:07:25;;;;;;;2.33;0.73;;;23.00;99.90;;;;;;5013348;28;20233;-71
2023/12/29 10:09:58;;;;;;;0.83;0.70;;;23.20;99.90;;;;;;4996562;28;20213;-71
2023/12/29 10:12:27;;;;;;;2.90;0.80;;;23.30;99.90;;;;;;4996550;28;20187;-70
2023/12/29 10:15:02;;;;;;;0.80;0.40;;;23.40;99.90;;;;;;5014110;28;20202;-70
2023/12/29 10:17:47;;;;;;;0.87;0.60;;;23.50;99.90;;;;;;5013474;28;20263;-71
2023/12/29 10:20:43;;;;;;;0.63;0.50;;;23.70;99.90;;;;;;5013731;28;20182;-70
2023/12/29 10:23:20;;;;;;;0.60;0.50;;;23.70;99.90;;;;;;5014002;28;20273;-71
2023/12/29 10:25:52;;;;;;;0.60;0.50;;;23.80;99.90;;;;;;5013741;28;20271;-71
2023/12/29 10:28:19;;;;;;;1.50;0.70;;;24.00;99.90;;;;;;5013695;28;20254;-70
2023/12/29 10:30:47;;;;;;;2.07;0.50;;;24.10;99.90;;;;;;5012191;28;20344;-71
2023/12/29 10:33:24;;;;;;;2.40;0.50;;;24.10;99.90;;;;;;5015542;28;20518;-70
2023/12/29 10:36:07;;;;;;;1.10;0.63;;;24.10;99.90;;;;;;5015304;28;20236;-71
2023/12/29 10:38:35;;;;;;;1.33;0.43;;;24.10;99.90;;;;;;5014735;28;20182;-70
2023/12/29 10:41:16;;;;;;;3.50;1.17;;;24.10;99.90;;;;;;5015387;28;20190;-71
2023/12/29 10:43:47;;;;;;;1.03;0.50;;;24.10;99.90;;;;;;4997820;28;20592;-71
2023/12/29 10:46:14;;;;;;;0.60;0.50;;;24.10;99.90;;;;;;4997741;28;20247;-71
2023/12/29 10:48:42;;;;;;;0.50;0.40;;;24.00;99.90;;;;;;4997680;28;20244;-71
2023/12/29 10:51:09;;;;;;;0.93;0.60;;;24.00;99.90;;;;;;5014874;28;20201;-71
2023/12/29 10:53:37;;;;;;;0.80;0.60;;;24.00;99.90;;;;;;5015279;28;20189;-71
2023/12/29 10:56:05;;;;;;;0.30;0.30;;;24.00;99.90;;;;;;5015307;28;20178;-70
2023/12/29 10:58:37;;;;;;;1.13;0.40;;;24.00;99.90;;;;;;5015241;28;20177;-71
2023/12/29 11:01:19;;;;;;;1.90;0.97;;;23.80;99.90;;;;;;5015103;28;20170;-71
2023/12/29 11:03:59;;;;;;;0.50;0.47;;;23.90;99.90;;;;;;5015247;28;20185;-71
2023/12/29 11:06:28;;;;;;;1.10;0.80;;;23.80;99.90;;;;;;5014960;28;20315;-70
2023/12/29 11:08:57;;;;;;;1.47;0.90;;;23.80;99.90;;;;;;5014980;28;20184;-72
2023/12/29 11:11:25;;;;;;;0.90;0.60;;;23.80;99.90;;;;;;5014981;28;20224;-72
2023/12/29 11:13:53;;;;;;;2.17;0.80;;;23.80;99.90;;;;;;5014973;28;20332;-71
2023/12/29 11:16:21;;;;;;;2.20;0.70;;;23.80;99.90;;;;;;5014810;28;20268;-71
2023/12/29 11:18:53;;;;;;;0.67;0.60;;;23.70;99.90;;;;;;5014786;28;20264;-71
2023/12/29 11:21:23;;;;;;;1.10;0.70;;;23.60;99.90;;;;;;5014937;28;20649;-72
2023/12/29 11:23:50;;;;;;;1.37;0.80;;;23.60;99.90;;;;;;5014772;28;20597;-71
2023/12/29 11:26:21;;;;;;;1.27;0.70;;;23.60;99.90;;;;;;5014801;28;20228;-71
2023/12/29 11:28:49;;;;;;;1.87;0.80;;;23.60;99.90;;;;;;5014621;28;20203;-71
2023/12/29 11:31:18;;;;;;;1.00;0.90;;;23.60;99.90;;;;;;5014652;28;20217;-71
2023/12/29 11:33:52;;;;;;;0.70;0.60;;;23.50;99.90;;;;;;5014590;28;20201;-71
2023/12/29 11:36:33;;;;;;;0.77;0.70;;;23.40;99.90;;;;;;5014782;28;20178;-71
2023/12/29 11:39:18;;;;;;;0.60;0.60;;;23.30;99.90;;;;;;5014412;28;20265;-71
2023/12/29 11:42:03;;;;;;;1.20;0.90;;;23.20;99.90;;;;;;5014612;28;20208;-71
2023/12/29 11:44:33;;;;;;;0.57;0.50;;;23.10;99.90;;;;;;4996777;28;20259;-71
2023/12/29 11:47:00;;;;;;;0.60;0.57;;;23.10;99.90;;;;;;5014085;28;20538;-69
2023/12/29 11:49:33;;;;;;;0.70;0.50;;;23.00;99.90;;;;;;5013800;28;20185;-69
2023/12/29 11:52:01;;;;;;;0.70;0.53;;;22.80;99.90;;;;;;5011784;28;20233;-70
2023/12/29 11:54:28;;;;;;;1.50;0.50;;;22.70;99.90;;;;;;4996545;28;20266;-70
2023/12/29 11:56:56;;;;;;;1.50;0.70;;;22.60;99.90;;;;;;5014292;28;20216;-71
2023/12/29 11:59:25;;;;;;;2.60;0.80;;;22.50;99.90;;;;;;5013959;28;20184;-70
2023/12/29 12:01:57;;;;;;;1.23;0.70;;;22.40;99.90;;;;;;5014032;28;20601;-70
2023/12/29 12:04:40;;;;;;;2.07;0.90;;;22.20;99.90;;;;;;5013938;28;20215;-71
2023/12/29 12:07:33;;;;;;;1.23;0.73;;;22.20;99.90;;;;;;5014068;28;20181;-71
2023/12/29 12:10:22;;;;;;;0.80;0.60;;;22.10;99.90;;;;;;5005611;28;20612;-70
2023/12/29 12:12:51;;;;;;;1.33;0.80;;;22.00;99.90;;;;;;5014036;28;20178;-71
2023/12/29 12:15:30;;;;;;;1.70;0.77;;;21.90;99.90;;;;;;5014209;28;20177;-71
2023/12/29 12:18:09;;;;;;;0.90;0.60;;;21.70;99.90;;;;;;5013977;28;20188;-70
2023/12/29 12:20:36;;;;;;;1.73;0.70;;;21.60;99.90;;;;;;5013677;28;20228;-70
2023/12/29 12:23:17;;;;;;;1.03;0.50;;;21.60;99.90;;;;;;5013744;28;20173;-70
2023/12/29 12:25:46;;;;;;;1.07;0.70;;;21.50;99.90;;;;;;5013861;28;20178;-71
2023/12/29 12:28:15;;;;;;;0.80;0.60;;;21.50;99.90;;;;;;5013867;28;20166;-71
2023/12/29 12:30:43;;;;;;;2.37;0.70;;;21.30;99.90;;;;;;4995857;28;20627;-71
2023/12/29 12:33:13;;;;;;;1.10;0.60;;;21.30;99.90;;;;;;5013818;28;20213;-71
2023/12/29 12:35:41;;;;;;;1.23;0.60;;;21.20;99.90;;;;;;5013665;28;20187;-71
2023/12/29 12:38:23;;;;;;;3.83;1.43;;;21.10;99.90;;;;;;4995768;28;20627;-71
2023/12/29 12:40:51;;;;;;;3.57;1.40;;;21.00;99.90;;;;;;4995913;28;20193;-70
2023/12/29 12:43:18;;;;;;;3.00;2.20;;;21.00;99.90;;;;;;5013469;28;20191;-72
2023/12/29 12:46:01;;;;;;;5.40;2.20;;;21.00;99.90;;;;;;5013669;28;20174;-72
2023/12/29 12:48:45;;;;;;;5.10;2.37;;;21.00;99.90;;;;;;5013441;28;20232;-71
2023/12/29 12:51:14;;;;;;;3.50;2.33;;;21.00;99.90;;;;;;5013179;28;20709;-71
2023/12/29 12:53:47;;;;;;;4.53;2.40;;;20.90;99.90;;;;;;5012835;28;20204;-70
2023/12/29 12:56:16;;;;;;;3.47;2.20;;;20.80;99.90;;;;;;5013275;28;20178;-70